sensor_id;sensor_type;location;lat;lon;timestamp;pressure;altitude;pressure_sealevel;temperature;humidity
54882;BME280;40775;51.448;4.742;2022-12-18T00:01:33;102689.38;;;0.30;80.19
54882;BME280;40775;51.448;4.742;2022-12-18T00:04:04;102686.19;;;0.33;80.08
54882;BME280;40775;51.448;4.742;2022-12-18T00:06:32;102674.81;;;0.31;79.92
54882;BME280;40775;51.448;4.742;2022-12-18T00:09:00;102680.28;;;0.25;79.62
54882;BME280;40775;51.448;4.742;2022-12-18T00:11:30;102685.31;;;0.24;79.55
54882;BME280;40775;51.448;4.742;2022-12-18T00:13:59;102679.09;;;0.22;79.23
54882;BME280;40775;51.448;4.742;2022-12-18T00:16:27;102668.50;;;0.19;79.00
54882;BME280;40775;51.448;4.742;2022-12-18T00:18:56;102674.16;;;0.15;78.81
54882;BME280;40775;51.448;4.742;2022-12-18T00:21:24;102686.72;;;0.20;78.62
54882;BME280;40775;51.448;4.742;2022-12-18T00:23:52;102682.59;;;0.22;78.43
54882;BME280;40775;51.448;4.742;2022-12-18T00:26:23;102668.91;;;0.23;78.33
54882;BME280;40775;51.448;4.742;2022-12-18T00:28:51;102666.81;;;0.19;78.28
54882;BME280;40775;51.448;4.742;2022-12-18T00:31:22;102660.97;;;0.12;78.00
54882;BME280;40775;51.448;4.742;2022-12-18T00:33:50;102656.44;;;0.09;77.81
54882;BME280;40775;51.448;4.742;2022-12-18T00:36:27;102666.00;;;0.10;77.86
54882;BME280;40775;51.448;4.742;2022-12-18T00:38:57;102670.13;;;0.08;77.61
54882;BME280;40775;51.448;4.742;2022-12-18T00:41:25;102672.16;;;0.02;77.60
54882;BME280;40775;51.448;4.742;2022-12-18T00:44:14;102664.69;;;0.05;77.47
54882;BME280;40775;51.448;4.742;2022-12-18T00:46:43;102676.28;;;0.00;77.60
54882;BME280;40775;51.448;4.742;2022-12-18T00:49:11;102672.75;;;-0.01;77.52
54882;BME280;40775;51.448;4.742;2022-12-18T00:51:38;102663.25;;;-0.10;77.25
54882;BME280;40775;51.448;4.742;2022-12-18T00:54:05;102665.69;;;-0.12;76.97
54882;BME280;40775;51.448;4.742;2022-12-18T00:56:35;102661.66;;;-0.18;76.78
54882;BME280;40775;51.448;4.742;2022-12-18T00:59:11;102663.19;;;-0.20;76.62
54882;BME280;40775;51.448;4.742;2022-12-18T01:01:38;102673.22;;;-0.23;76.35
54882;BME280;40775;51.448;4.742;2022-12-18T01:04:06;102676.88;;;-0.30;76.36
54882;BME280;40775;51.448;4.742;2022-12-18T01:06:35;102684.47;;;-0.23;76.67
54882;BME280;40775;51.448;4.742;2022-12-18T01:09:03;102692.50;;;-0.28;76.52
54882;BME280;40775;51.448;4.742;2022-12-18T01:11:30;102695.56;;;-0.24;76.55
54882;BME280;40775;51.448;4.742;2022-12-18T01:13:59;102691.03;;;-0.26;76.75
54882;BME280;40775;51.448;4.742;2022-12-18T01:16:26;102695.72;;;-0.31;76.63
54882;BME280;40775;51.448;4.742;2022-12-18T01:18:54;102679.69;;;-0.37;76.47
54882;BME280;40775;51.448;4.742;2022-12-18T01:21:23;102672.56;;;-0.40;76.05
54882;BME280;40775;51.448;4.742;2022-12-18T01:23:53;102663.69;;;-0.52;75.88
54882;BME280;40775;51.448;4.742;2022-12-18T01:26:22;102664.13;;;-0.56;75.75
54882;BME280;40775;51.448;4.742;2022-12-18T01:28:49;102668.38;;;-0.56;75.70
54882;BME280;40775;51.448;4.742;2022-12-18T01:31:23;102664.34;;;-0.63;75.66
54882;BME280;40775;51.448;4.742;2022-12-18T01:33:51;102671.09;;;-0.55;75.69
54882;BME280;40775;51.448;4.742;2022-12-18T01:36:22;102665.38;;;-0.61;75.74
54882;BME280;40775;51.448;4.742;2022-12-18T01:38:50;102668.25;;;-0.58;75.74
54882;BME280;40775;51.448;4.742;2022-12-18T01:41:27;102667.19;;;-0.60;75.83
54882;BME280;40775;51.448;4.742;2022-12-18T01:44:59;102665.66;;;-0.58;75.94
54882;BME280;40775;51.448;4.742;2022-12-18T01:47:52;102666.34;;;-0.69;75.75
54882;BME280;40775;51.448;4.742;2022-12-18T01:50:23;102668.16;;;-0.68;75.90
54882;BME280;40775;51.448;4.742;2022-12-18T01:55:35;102664.25;;;-0.73;75.87
54882;BME280;40775;51.448;4.742;2022-12-18T01:58:05;102669.59;;;-0.80;75.50
54882;BME280;40775;51.448;4.742;2022-12-18T02:00:32;102662.44;;;-0.83;75.33
54882;BME280;40775;51.448;4.742;2022-12-18T02:02:59;102661.38;;;-0.85;75.14
54882;BME280;40775;51.448;4.742;2022-12-18T02:11:18;102666.88;;;-0.90;74.76
54882;BME280;40775;51.448;4.742;2022-12-18T02:14:04;102653.56;;;-0.95;74.93
54882;BME280;40775;51.448;4.742;2022-12-18T02:17:07;102666.00;;;-1.00;74.61
54882;BME280;40775;51.448;4.742;2022-12-18T02:20:21;102667.53;;;-1.02;74.76
54882;BME280;40775;51.448;4.742;2022-12-18T02:28:20;102666.78;;;-1.01;74.72
54882;BME280;40775;51.448;4.742;2022-12-18T02:30:51;102653.88;;;-1.01;74.83
54882;BME280;40775;51.448;4.742;2022-12-18T02:33:21;102646.44;;;-0.98;74.75
54882;BME280;40775;51.448;4.742;2022-12-18T02:35:50;102637.97;;;-0.42;75.32
54882;BME280;40775;51.448;4.742;2022-12-18T02:38:19;102623.47;;;3.10;74.99
54882;BME280;40775;51.448;4.742;2022-12-18T02:40:48;102620.38;;;5.11;71.07
54882;BME280;40775;51.448;4.742;2022-12-18T02:43:16;102614.72;;;6.71;67.30
54882;BME280;40775;51.448;4.742;2022-12-18T02:45:55;102603.00;;;7.76;63.53
54882;BME280;40775;51.448;4.742;2022-12-18T02:48:34;102591.28;;;8.74;64.80
54882;BME280;40775;51.448;4.742;2022-12-18T02:51:39;102595.44;;;9.50;66.98
54882;BME280;40775;51.448;4.742;2022-12-18T02:56:55;102591.94;;;10.18;68.16
54882;BME280;40775;51.448;4.742;2022-12-18T02:59:55;102588.81;;;10.43;67.94
54882;BME280;40775;51.448;4.742;2022-12-18T03:03:03;102581.97;;;10.64;67.68
54882;BME280;40775;51.448;4.742;2022-12-18T03:05:55;102580.75;;;10.75;66.95
54882;BME280;40775;51.448;4.742;2022-12-18T03:08:28;102585.88;;;10.92;66.84
54882;BME280;40775;51.448;4.742;2022-12-18T03:11:09;102577.63;;;11.02;66.38
54882;BME280;40775;51.448;4.742;2022-12-18T03:13:48;102573.69;;;11.11;65.99
54882;BME280;40775;51.448;4.742;2022-12-18T03:16:25;102575.69;;;11.17;65.65
54882;BME280;40775;51.448;4.742;2022-12-18T03:19:28;102570.03;;;11.27;65.10
54882;BME280;40775;51.448;4.742;2022-12-18T03:21:56;102580.06;;;11.36;64.55
54882;BME280;40775;51.448;4.742;2022-12-18T03:24:26;102581.09;;;11.39;63.84
54882;BME280;40775;51.448;4.742;2022-12-18T03:27:01;102572.56;;;11.45;63.36
54882;BME280;40775;51.448;4.742;2022-12-18T03:30:00;102563.91;;;11.48;63.27
54882;BME280;40775;51.448;4.742;2022-12-18T03:35:39;102548.41;;;11.54;62.02
54882;BME280;40775;51.448;4.742;2022-12-18T03:38:07;102560.03;;;11.59;61.94
54882;BME280;40775;51.448;4.742;2022-12-18T03:43:55;102557.78;;;11.68;60.82
54882;BME280;40775;51.448;4.742;2022-12-18T03:49:49;102548.28;;;11.71;59.95
54882;BME280;40775;51.448;4.742;2022-12-18T03:52:32;102549.19;;;11.72;59.29
54882;BME280;40775;51.448;4.742;2022-12-18T03:55:04;102554.78;;;11.78;58.86
54882;BME280;40775;51.448;4.742;2022-12-18T03:57:32;102545.16;;;11.79;58.44
54882;BME280;40775;51.448;4.742;2022-12-18T04:00:11;102549.72;;;11.83;58.09
54882;BME280;40775;51.448;4.742;2022-12-18T04:02:44;102549.56;;;11.80;58.03
54882;BME280;40775;51.448;4.742;2022-12-18T04:05:13;102550.66;;;11.85;57.88
54882;BME280;40775;51.448;4.742;2022-12-18T04:07:41;102543.72;;;11.87;57.52
54882;BME280;40775;51.448;4.742;2022-12-18T04:10:10;102548.28;;;11.91;57.40
54882;BME280;40775;51.448;4.742;2022-12-18T04:12:39;102539.50;;;11.90;56.90
54882;BME280;40775;51.448;4.742;2022-12-18T04:15:07;102551.88;;;11.93;56.91
54882;BME280;40775;51.448;4.742;2022-12-18T04:17:35;102540.44;;;11.92;56.29
54882;BME280;40775;51.448;4.742;2022-12-18T04:20:02;102543.97;;;11.93;56.41
54882;BME280;40775;51.448;4.742;2022-12-18T04:22:30;102548.53;;;11.97;56.17
54882;BME280;40775;51.448;4.742;2022-12-18T04:24:57;102539.69;;;11.95;56.22
54882;BME280;40775;51.448;4.742;2022-12-18T04:27:24;102537.09;;;11.96;56.13
54882;BME280;40775;51.448;4.742;2022-12-18T04:29:51;102538.78;;;11.94;55.95
54882;BME280;40775;51.448;4.742;2022-12-18T04:32:18;102544.88;;;11.93;55.87
54882;BME280;40775;51.448;4.742;2022-12-18T04:34:46;102539.25;;;11.84;55.14
54882;BME280;40775;51.448;4.742;2022-12-18T04:37:13;102561.53;;;1.65;52.79
54882;BME280;40775;51.448;4.742;2022-12-18T04:39:40;102557.56;;;-0.46;61.14
54882;BME280;40775;51.448;4.742;2022-12-18T04:42:07;102549.25;;;2.68;64.87
54882;BME280;40775;51.448;4.742;2022-12-18T04:44:34;102540.44;;;5.22;62.33
54882;BME280;40775;51.448;4.742;2022-12-18T04:47:03;102534.56;;;6.96;57.79
54882;BME280;40775;51.448;4.742;2022-12-18T04:49:30;102535.19;;;8.23;55.86
54882;BME280;40775;51.448;4.742;2022-12-18T04:51:57;102533.88;;;9.10;57.45
54882;BME280;40775;51.448;4.742;2022-12-18T04:54:24;102533.41;;;9.85;60.81
54882;BME280;40775;51.448;4.742;2022-12-18T04:56:52;102525.06;;;10.28;62.70
54882;BME280;40775;51.448;4.742;2022-12-18T04:59:20;102534.47;;;10.60;63.01
54882;BME280;40775;51.448;4.742;2022-12-18T05:01:47;102531.25;;;10.84;63.15
54882;BME280;40775;51.448;4.742;2022-12-18T05:04:15;102533.72;;;10.99;62.46
54882;BME280;40775;51.448;4.742;2022-12-18T05:06:43;102540.41;;;11.12;62.53
54882;BME280;40775;51.448;4.742;2022-12-18T05:09:10;102542.59;;;11.22;62.15
54882;BME280;40775;51.448;4.742;2022-12-18T05:11:38;102539.44;;;11.29;61.25
54882;BME280;40775;51.448;4.742;2022-12-18T05:14:05;102539.72;;;11.35;61.38
54882;BME280;40775;51.448;4.742;2022-12-18T05:16:32;102539.13;;;11.42;60.69
54882;BME280;40775;51.448;4.742;2022-12-18T05:18:59;102546.06;;;11.40;59.99
54882;BME280;40775;51.448;4.742;2022-12-18T05:21:26;102539.00;;;11.39;58.83
54882;BME280;40775;51.448;4.742;2022-12-18T05:23:53;102538.50;;;11.48;59.09
54882;BME280;40775;51.448;4.742;2022-12-18T05:26:21;102533.25;;;11.48;58.45
54882;BME280;40775;51.448;4.742;2022-12-18T05:28:48;102534.38;;;11.53;58.22
54882;BME280;40775;51.448;4.742;2022-12-18T05:31:15;102538.22;;;11.61;57.94
54882;BME280;40775;51.448;4.742;2022-12-18T05:33:42;102528.84;;;11.68;57.52
54882;BME280;40775;51.448;4.742;2022-12-18T05:36:10;102530.72;;;11.70;56.74
54882;BME280;40775;51.448;4.742;2022-12-18T05:38:39;102523.06;;;11.76;56.50
54882;BME280;40775;51.448;4.742;2022-12-18T05:41:07;102525.13;;;11.82;56.36
54882;BME280;40775;51.448;4.742;2022-12-18T05:43:37;102533.97;;;11.84;55.81
54882;BME280;40775;51.448;4.742;2022-12-18T05:46:08;102532.44;;;11.89;55.79
54882;BME280;40775;51.448;4.742;2022-12-18T05:48:35;102528.25;;;11.94;55.54
54882;BME280;40775;51.448;4.742;2022-12-18T05:51:06;102538.97;;;11.99;55.08
54882;BME280;40775;51.448;4.742;2022-12-18T05:53:35;102533.00;;;12.03;54.96
54882;BME280;40775;51.448;4.742;2022-12-18T05:56:07;102546.22;;;12.04;54.56
54882;BME280;40775;51.448;4.742;2022-12-18T05:58:34;102541.09;;;12.07;54.55
54882;BME280;40775;51.448;4.742;2022-12-18T06:01:15;102537.69;;;12.10;54.48
54882;BME280;40775;51.448;4.742;2022-12-18T06:03:43;102539.50;;;12.11;54.48
54882;BME280;40775;51.448;4.742;2022-12-18T06:06:23;102532.56;;;12.13;54.33
54882;BME280;40775;51.448;4.742;2022-12-18T06:08:51;102530.81;;;12.14;54.04
54882;BME280;40775;51.448;4.742;2022-12-18T06:11:24;102524.84;;;12.18;54.08
54882;BME280;40775;51.448;4.742;2022-12-18T06:13:54;102520.47;;;12.18;53.97
54882;BME280;40775;51.448;4.742;2022-12-18T06:16:26;102513.53;;;12.20;54.30
54882;BME280;40775;51.448;4.742;2022-12-18T06:19:00;102510.94;;;12.22;53.90
54882;BME280;40775;51.448;4.742;2022-12-18T06:21:29;102511.06;;;12.25;54.22
54882;BME280;40775;51.448;4.742;2022-12-18T06:23:57;102519.09;;;12.28;54.46
54882;BME280;40775;51.448;4.742;2022-12-18T06:26:25;102520.06;;;12.30;54.39
54882;BME280;40775;51.448;4.742;2022-12-18T06:28:54;102518.38;;;12.32;54.07
54882;BME280;40775;51.448;4.742;2022-12-18T06:31:22;102515.06;;;12.36;55.14
54882;BME280;40775;51.448;4.742;2022-12-18T06:33:49;102510.03;;;12.42;56.04
54882;BME280;40775;51.448;4.742;2022-12-18T06:36:17;102517.31;;;12.49;56.65
54882;BME280;40775;51.448;4.742;2022-12-18T06:38:44;102507.13;;;12.58;57.79
54882;BME280;40775;51.448;4.742;2022-12-18T06:41:18;102527.97;;;3.85;47.74
54882;BME280;40775;51.448;4.742;2022-12-18T06:43:46;102535.06;;;-0.85;59.37
54882;BME280;40775;51.448;4.742;2022-12-18T06:46:13;102533.94;;;0.94;65.29
54882;BME280;40775;51.448;4.742;2022-12-18T06:48:41;102519.31;;;4.44;64.44
54882;BME280;40775;51.448;4.742;2022-12-18T06:51:08;102502.94;;;6.64;59.79
54882;BME280;40775;51.448;4.742;2022-12-18T06:53:35;102489.75;;;8.38;62.34
54882;BME280;40775;51.448;4.742;2022-12-18T06:56:06;102483.56;;;9.33;63.25
54882;BME280;40775;51.448;4.742;2022-12-18T06:58:37;102470.22;;;9.98;64.86
54882;BME280;40775;51.448;4.742;2022-12-18T07:01:08;102482.44;;;10.51;66.79
54882;BME280;40775;51.448;4.742;2022-12-18T07:03:41;102467.50;;;10.89;68.13
54882;BME280;40775;51.448;4.742;2022-12-18T07:06:18;102466.94;;;11.15;68.57
54882;BME280;40775;51.448;4.742;2022-12-18T07:08:47;102458.66;;;11.25;68.63
54882;BME280;40775;51.448;4.742;2022-12-18T07:11:15;102446.84;;;11.36;68.44
54882;BME280;40775;51.448;4.742;2022-12-18T07:13:43;102448.19;;;11.48;68.71
54882;BME280;40775;51.448;4.742;2022-12-18T07:16:17;102441.97;;;11.66;69.15
54882;BME280;40775;51.448;4.742;2022-12-18T07:18:53;102440.59;;;11.76;68.82
54882;BME280;40775;51.448;4.742;2022-12-18T07:21:23;102433.97;;;11.84;68.86
54882;BME280;40775;51.448;4.742;2022-12-18T07:23:51;102423.16;;;11.99;68.53
54882;BME280;40775;51.448;4.742;2022-12-18T07:26:20;102422.50;;;12.04;67.45
54882;BME280;40775;51.448;4.742;2022-12-18T07:28:48;102413.13;;;12.11;67.57
54882;BME280;40775;51.448;4.742;2022-12-18T07:31:20;102413.25;;;12.14;66.53
54882;BME280;40775;51.448;4.742;2022-12-18T07:33:49;102409.72;;;12.14;65.16
54882;BME280;40775;51.448;4.742;2022-12-18T07:36:17;102413.47;;;12.20;65.35
54882;BME280;40775;51.448;4.742;2022-12-18T07:38:47;102411.78;;;12.22;64.76
54882;BME280;40775;51.448;4.742;2022-12-18T07:41:16;102415.50;;;12.27;64.26
54882;BME280;40775;51.448;4.742;2022-12-18T07:43:43;102425.44;;;12.34;64.19
54882;BME280;40775;51.448;4.742;2022-12-18T07:46:12;102429.72;;;12.32;63.19
54882;BME280;40775;51.448;4.742;2022-12-18T07:48:44;102432.56;;;12.37;62.74
54882;BME280;40775;51.448;4.742;2022-12-18T07:51:16;102421.19;;;12.38;62.25
54882;BME280;40775;51.448;4.742;2022-12-18T07:53:44;102421.97;;;12.35;61.98
54882;BME280;40775;51.448;4.742;2022-12-18T07:56:12;102427.19;;;12.34;61.62
54882;BME280;40775;51.448;4.742;2022-12-18T07:58:58;102421.38;;;12.43;61.85
54882;BME280;40775;51.448;4.742;2022-12-18T08:01:26;102428.59;;;12.48;61.84
54882;BME280;40775;51.448;4.742;2022-12-18T08:03:54;102423.44;;;12.51;61.33
54882;BME280;40775;51.448;4.742;2022-12-18T08:06:21;102429.72;;;12.55;60.78
54882;BME280;40775;51.448;4.742;2022-12-18T08:08:55;102430.66;;;12.57;61.16
54882;BME280;40775;51.448;4.742;2022-12-18T08:11:24;102426.28;;;12.57;61.20
54882;BME280;40775;51.448;4.742;2022-12-18T08:13:52;102416.00;;;12.63;61.60
54882;BME280;40775;51.448;4.742;2022-12-18T08:16:21;102417.69;;;12.61;61.24
54882;BME280;40775;51.448;4.742;2022-12-18T08:18:49;102418.59;;;12.62;60.69
54882;BME280;40775;51.448;4.742;2022-12-18T08:21:26;102407.16;;;12.61;60.84
54882;BME280;40775;51.448;4.742;2022-12-18T08:23:56;102391.19;;;12.58;60.10
54882;BME280;40775;51.448;4.742;2022-12-18T08:26:26;102375.53;;;12.61;60.37
54882;BME280;40775;51.448;4.742;2022-12-18T08:28:55;102377.44;;;12.65;60.33
54882;BME280;40775;51.448;4.742;2022-12-18T08:31:23;102386.19;;;12.64;60.94
54882;BME280;40775;51.448;4.742;2022-12-18T08:33:52;102405.56;;;12.66;61.38
54882;BME280;40775;51.448;4.742;2022-12-18T08:36:21;102408.94;;;12.62;60.03
54882;BME280;40775;51.448;4.742;2022-12-18T08:38:50;102412.34;;;12.60;59.99
54882;BME280;40775;51.448;4.742;2022-12-18T08:41:18;102410.63;;;12.60;59.80
54882;BME280;40775;51.448;4.742;2022-12-18T08:43:46;102413.13;;;12.57;60.25
54882;BME280;40775;51.448;4.742;2022-12-18T08:46:38;102427.56;;;2.82;51.15
54882;BME280;40775;51.448;4.742;2022-12-18T08:49:07;102432.38;;;-0.33;61.56
54882;BME280;40775;51.448;4.742;2022-12-18T08:51:35;102431.06;;;2.16;66.99
54882;BME280;40775;51.448;4.742;2022-12-18T08:54:03;102418.69;;;4.93;65.64
54882;BME280;40775;51.448;4.742;2022-12-18T08:56:32;102400.94;;;6.89;61.15
54882;BME280;40775;51.448;4.742;2022-12-18T08:59:00;102413.22;;;8.42;59.53
54882;BME280;40775;51.448;4.742;2022-12-18T09:01:28;102399.78;;;9.52;61.92
54882;BME280;40775;51.448;4.742;2022-12-18T09:03:55;102403.22;;;10.23;64.75
54882;BME280;40775;51.448;4.742;2022-12-18T09:06:23;102410.56;;;10.68;66.80
54882;BME280;40775;51.448;4.742;2022-12-18T09:08:50;102391.47;;;11.12;69.17
54882;BME280;40775;51.448;4.742;2022-12-18T09:11:24;102394.97;;;11.32;69.84
54882;BME280;40775;51.448;4.742;2022-12-18T09:13:53;102401.13;;;11.54;70.65
54882;BME280;40775;51.448;4.742;2022-12-18T09:16:21;102397.06;;;11.62;70.12
54882;BME280;40775;51.448;4.742;2022-12-18T09:18:56;102393.97;;;11.72;69.94
54882;BME280;40775;51.448;4.742;2022-12-18T09:21:32;102393.78;;;11.88;70.65
54882;BME280;40775;51.448;4.742;2022-12-18T09:24:03;102378.41;;;11.99;69.82
54882;BME280;40775;51.448;4.742;2022-12-18T09:26:34;102371.53;;;12.02;68.62
54882;BME280;40775;51.448;4.742;2022-12-18T09:29:05;102375.38;;;12.11;68.13
54882;BME280;40775;51.448;4.742;2022-12-18T09:31:34;102371.00;;;12.11;66.74
54882;BME280;40775;51.448;4.742;2022-12-18T09:34:01;102376.44;;;12.16;66.09
54882;BME280;40775;51.448;4.742;2022-12-18T09:36:28;102368.66;;;12.19;65.38
54882;BME280;40775;51.448;4.742;2022-12-18T09:38:56;102369.72;;;12.24;64.45
54882;BME280;40775;51.448;4.742;2022-12-18T09:41:50;102375.22;;;12.30;63.54
54882;BME280;40775;51.448;4.742;2022-12-18T09:49:43;102384.16;;;12.33;61.61
54882;BME280;40775;51.448;4.742;2022-12-18T09:52:41;102387.59;;;12.32;61.07
54882;BME280;40775;51.448;4.742;2022-12-18T09:55:26;102380.53;;;12.31;60.85
54882;BME280;40775;51.448;4.742;2022-12-18T09:58:37;102381.56;;;12.35;60.59
54882;BME280;40775;51.448;4.742;2022-12-18T10:01:14;102380.91;;;12.41;60.03
54882;BME280;40775;51.448;4.742;2022-12-18T10:03:43;102381.75;;;12.40;60.04
54882;BME280;40775;51.448;4.742;2022-12-18T10:06:37;102373.53;;;12.32;59.82
54882;BME280;40775;51.448;4.742;2022-12-18T10:12:19;102381.75;;;12.40;60.29
54882;BME280;40775;51.448;4.742;2022-12-18T10:14:58;102373.16;;;12.45;60.14
54882;BME280;40775;51.448;4.742;2022-12-18T10:17:54;102358.41;;;12.50;59.81
54882;BME280;40775;51.448;4.742;2022-12-18T10:21:11;102339.13;;;12.51;60.27
54882;BME280;40775;51.448;4.742;2022-12-18T10:26:24;102329.84;;;12.61;60.63
54882;BME280;40775;51.448;4.742;2022-12-18T10:28:53;102329.56;;;12.53;59.77
54882;BME280;40775;51.448;4.742;2022-12-18T10:31:25;102319.81;;;12.51;60.39
54882;BME280;40775;51.448;4.742;2022-12-18T10:33:54;102307.31;;;12.45;60.04
54882;BME280;40775;51.448;4.742;2022-12-18T10:36:24;102308.25;;;12.47;59.83
54882;BME280;40775;51.448;4.742;2022-12-18T10:38:53;102308.88;;;12.40;59.99
54882;BME280;40775;51.448;4.742;2022-12-18T10:41:27;102302.88;;;12.44;59.61
54882;BME280;40775;51.448;4.742;2022-12-18T10:44:22;102290.81;;;12.51;60.02
54882;BME280;40775;51.448;4.742;2022-12-18T10:46:54;102286.44;;;12.51;59.61
54882;BME280;40775;51.448;4.742;2022-12-18T10:49:31;102280.44;;;12.55;60.22
54882;BME280;40775;51.448;4.742;2022-12-18T10:55:02;102320.97;;;1.04;67.02
54882;BME280;40775;51.448;4.742;2022-12-18T10:57:39;102335.66;;;0.73;70.24
54882;BME280;40775;51.448;4.742;2022-12-18T11:00:27;102337.34;;;0.62;72.11
54882;BME280;40775;51.448;4.742;2022-12-18T11:02:56;102344.72;;;0.57;73.61
54882;BME280;40775;51.448;4.742;2022-12-18T11:05:33;102346.41;;;0.57;74.50
54882;BME280;40775;51.448;4.742;2022-12-18T11:08:01;102340.19;;;0.55;74.98
54882;BME280;40775;51.448;4.742;2022-12-18T11:10:37;102323.63;;;0.53;75.63
54882;BME280;40775;51.448;4.742;2022-12-18T11:13:20;102326.22;;;0.53;76.23
54882;BME280;40775;51.448;4.742;2022-12-18T11:15:49;102316.53;;;0.60;76.47
54882;BME280;40775;51.448;4.742;2022-12-18T11:18:30;102323.13;;;0.57;76.76
54882;BME280;40775;51.448;4.742;2022-12-18T11:21:11;102334.63;;;0.60;76.65
54882;BME280;40775;51.448;4.742;2022-12-18T11:23:53;102327.75;;;0.71;77.03
54882;BME280;40775;51.448;4.742;2022-12-18T11:26:21;102317.56;;;0.73;77.03
54882;BME280;40775;51.448;4.742;2022-12-18T11:29:16;102331.75;;;0.78;77.33
54882;BME280;40775;51.448;4.742;2022-12-18T11:31:45;102318.84;;;0.88;77.67
54882;BME280;40775;51.448;4.742;2022-12-18T11:34:27;102311.56;;;0.94;77.73
54882;BME280;40775;51.448;4.742;2022-12-18T11:36:59;102309.13;;;0.96;77.84
54882;BME280;40775;51.448;4.742;2022-12-18T11:39:57;102288.69;;;0.99;78.04
54882;BME280;40775;51.448;4.742;2022-12-18T11:42:37;102283.34;;;1.07;78.14
54882;BME280;40775;51.448;4.742;2022-12-18T11:47:49;102278.69;;;1.03;78.59
54882;BME280;40775;51.448;4.742;2022-12-18T11:50:47;102282.56;;;1.08;78.54
54882;BME280;40775;51.448;4.742;2022-12-18T11:53:12;102280.63;;;1.16;79.06
54882;BME280;40775;51.448;4.742;2022-12-18T12:10:07;102249.47;;;1.36;79.31
54882;BME280;40775;51.448;4.742;2022-12-18T12:21:36;102232.59;;;1.51;79.79
54882;BME280;40775;51.448;4.742;2022-12-18T12:39:40;102232.00;;;1.66;80.74
54882;BME280;40775;51.448;4.742;2022-12-18T12:42:36;102225.91;;;1.65;80.84
54882;BME280;40775;51.448;4.742;2022-12-18T12:45:36;102216.81;;;1.70;80.88
54882;BME280;40775;51.448;4.742;2022-12-18T12:48:14;102218.63;;;1.71;80.87
54882;BME280;40775;51.448;4.742;2022-12-18T12:50:43;102207.91;;;1.67;80.90
54882;BME280;40775;51.448;4.742;2022-12-18T12:53:29;102212.44;;;1.69;81.00
54882;BME280;40775;51.448;4.742;2022-12-18T12:55:57;102212.31;;;1.68;81.32
54882;BME280;40775;51.448;4.742;2022-12-18T12:59:04;102213.31;;;1.70;81.23
54882;BME280;40775;51.448;4.742;2022-12-18T13:07:26;102197.78;;;1.70;81.41
54882;BME280;40775;51.448;4.742;2022-12-18T13:13:11;102186.09;;;1.75;82.16
54882;BME280;40775;51.448;4.742;2022-12-18T13:16:07;102189.25;;;1.71;82.04
54882;BME280;40775;51.448;4.742;2022-12-18T13:18:35;102187.91;;;1.76;81.91
54882;BME280;40775;51.448;4.742;2022-12-18T13:21:25;102188.13;;;1.79;82.11
54882;BME280;40775;51.448;4.742;2022-12-18T13:23:55;102183.88;;;1.79;82.03
54882;BME280;40775;51.448;4.742;2022-12-18T13:28:56;102164.94;;;1.80;82.22
54882;BME280;40775;51.448;4.742;2022-12-18T13:36:56;102155.28;;;1.90;82.38
54882;BME280;40775;51.448;4.742;2022-12-18T13:39:35;102149.88;;;1.86;82.30
54882;BME280;40775;51.448;4.742;2022-12-18T13:44:36;102155.28;;;1.90;82.29
54882;BME280;40775;51.448;4.742;2022-12-18T13:47:36;102166.03;;;1.94;82.42
54882;BME280;40775;51.448;4.742;2022-12-18T13:50:34;102160.72;;;1.93;82.54
54882;BME280;40775;51.448;4.742;2022-12-18T13:53:03;102158.13;;;1.93;82.42
54882;BME280;40775;51.448;4.742;2022-12-18T13:55:32;102155.00;;;1.97;82.44
54882;BME280;40775;51.448;4.742;2022-12-18T13:58:06;102147.69;;;2.03;82.44
54882;BME280;40775;51.448;4.742;2022-12-18T14:00:33;102148.91;;;1.96;82.86
54882;BME280;40775;51.448;4.742;2022-12-18T14:03:01;102155.34;;;2.01;82.57
54882;BME280;40775;51.448;4.742;2022-12-18T14:05:36;102150.59;;;1.96;82.69
54882;BME280;40775;51.448;4.742;2022-12-18T14:08:10;102149.38;;;2.02;82.59
54882;BME280;40775;51.448;4.742;2022-12-18T14:10:47;102148.81;;;2.06;82.54
54882;BME280;40775;51.448;4.742;2022-12-18T14:13:30;102149.38;;;2.02;82.40
54882;BME280;40775;51.448;4.742;2022-12-18T14:16:01;102152.41;;;2.08;82.41
54882;BME280;40775;51.448;4.742;2022-12-18T14:19:13;102142.50;;;2.03;82.69
54882;BME280;40775;51.448;4.742;2022-12-18T14:21:47;102150.59;;;2.07;82.62
54882;BME280;40775;51.448;4.742;2022-12-18T14:24:20;102148.81;;;2.06;82.94
54882;BME280;40775;51.448;4.742;2022-12-18T14:26:49;102146.56;;;1.99;82.88
54882;BME280;40775;51.448;4.742;2022-12-18T14:32:06;102131.00;;;1.99;83.21
54882;BME280;40775;51.448;4.742;2022-12-18T14:34:46;102120.44;;;1.96;83.41
54882;BME280;40775;51.448;4.742;2022-12-18T14:37:18;102120.66;;;1.99;83.49
54882;BME280;40775;51.448;4.742;2022-12-18T14:39:59;102118.19;;;2.01;83.44
54882;BME280;40775;51.448;4.742;2022-12-18T14:42:36;102126.50;;;2.08;83.71
54882;BME280;40775;51.448;4.742;2022-12-18T14:48:39;102124.44;;;1.81;84.44
54882;BME280;40775;51.448;4.742;2022-12-18T14:51:23;102119.25;;;1.69;84.51
54882;BME280;40775;51.448;4.742;2022-12-18T14:54:12;102112.03;;;1.77;84.68
54882;BME280;40775;51.448;4.742;2022-12-18T14:56:46;102099.22;;;1.90;84.99
54882;BME280;40775;51.448;4.742;2022-12-18T14:59:17;102109.34;;;1.87;85.00
54882;BME280;40775;51.448;4.742;2022-12-18T15:03:20;102090.78;;;1.81;84.78
54882;BME280;40775;51.448;4.742;2022-12-18T15:05:49;102093.72;;;1.85;85.13
54882;BME280;40775;51.448;4.742;2022-12-18T15:08:39;102085.81;;;1.84;85.08
54882;BME280;40775;51.448;4.742;2022-12-18T15:11:28;102080.66;;;1.84;84.91
54882;BME280;40775;51.448;4.742;2022-12-18T15:13:57;102072.88;;;1.84;84.95
54882;BME280;40775;51.448;4.742;2022-12-18T15:16:24;102073.22;;;1.77;84.86